METAR Formatted Surface Weather Observation
Issued by NWS

Home | Current Version | Previous Version | Text Only | Print | Product List | Glossary On
Versions: 1 2 3 4 5 6 7
137
SAUS46 KLOX 260257
MTRNID
METAR KNID 260256Z AUTO 19005KT 10SM CLR 07/M13 A3011 RMK AO2 SLP209
T00721128 56004



USA.gov is the U.S. government's official web portal to all federal, state and local government web resources and services.